Terminal Aerodrome Forecast
Issued by NWS Jackson, MS

Current Version | Previous Version | Text Only | Print | Product List | Glossary On
Versions: 1 2 3 4 5 6 7 8 9 10 11 12
000
FTUS44 KJAN 280500
TAFJAN
TAF
KJAN 280523Z 2806/2906 24003KT P6SM SCT250
     FM281000 30003KT 6SM BR VCTS SCT035CB BKN250
     FM281500 33011KT P6SM SCT250
     FM290200 35003KT P6SM SKC=

USA.gov is the U.S. government's official web portal to all federal, state and local government web resources and services.